Time;durP1;ratioP1;P1;durP2;ratioP2;P2;SDS_P1;SDS_P2;PMS_P1;PMS_P2;Temp;Humidity;BMP_temperature;BMP_pressure;BME280_temperature;BME280_humidity;BME280_pressure;Samples;Min_cycle;Max_cycle;Signal;HPM_P1;HPM_P2
2021/01/03 00:01:14;;;;;;;;;;;;;;;27.53;30.61;101524.78;5118501;28;770;-36
2021/01/03 00:03:39;;;;;;;;;;;;;;;27.36;30.78;101521.25;5117725;28;1963;-36
2021/01/03 00:06:05;;;;;;;;;;;;;;;26.22;33.24;101517.66;5117796;27;985;-36
2021/01/03 00:08:30;;;;;;;;;;;;;;;26.81;32.03;101520.69;5118116;28;755;-36
2021/01/03 00:10:56;;;;;;;;;;;;;;;27.44;30.94;101506.88;5134978;27;1197;-36
2021/01/03 00:13:21;;;;;;;;;;;;;;;27.51;30.53;101516.00;5138737;27;809;-36
2021/01/03 00:15:47;;;;;;;;;;;;;;;27.49;30.56;101502.66;5138430;27;849;-35
2021/01/03 00:18:12;;;;;;;;;;;;;;;26.77;31.98;101502.13;5138183;27;739;-36
2021/01/03 00:20:38;;;;;;;;;;;;;;;26.62;32.57;101496.50;5131868;27;1082;-36
2021/01/03 00:23:03;;;;;;;;;;;;;;;27.19;31.50;101499.59;5118055;28;839;-36
2021/01/03 00:25:29;;;;;;;;;;;;;;;27.62;30.56;101509.44;5117567;28;1913;-36
2021/01/03 00:27:54;;;;;;;;;;;;;;;27.26;31.15;101508.72;5118083;28;791;-37
2021/01/03 00:30:20;;;;;;;;;;;;;;;27.32;30.60;101500.97;5117903;28;791;-36
2021/01/03 00:32:46;;;;;;;;;;;;;;;27.08;31.52;101495.34;5117331;28;787;-36
2021/01/03 00:35:13;;;;;;;;;;;;;;;27.00;31.77;101493.44;5115823;27;1270;-37
2021/01/03 00:37:38;;;;;;;;;;;;;;;27.50;30.54;101490.00;5117740;28;813;-35
2021/01/03 00:40:05;;;;;;;;;;;;;;;27.56;30.29;101485.81;5117464;28;743;-36
2021/01/03 00:42:30;;;;;;;;;;;;;;;27.55;30.43;101474.13;5117392;28;757;-35
2021/01/03 00:44:56;;;;;;;;;;;;;;;27.25;31.24;101471.06;5117671;28;1913;-35
2021/01/03 00:47:21;;;;;;;;;;;;;;;27.16;31.56;101466.66;5117093;28;799;-36
2021/01/03 00:49:46;;;;;;;;;;;;;;;27.95;30.15;101460.78;5117276;28;845;-35
2021/01/03 00:52:11;;;;;;;;;;;;;;;27.81;29.95;101458.78;5117002;27;934;-36
2021/01/03 00:54:37;;;;;;;;;;;;;;;27.57;30.45;101468.56;5117011;28;898;-35
2021/01/03 00:57:02;;;;;;;;;;;;;;;26.90;31.65;101463.03;5117556;28;755;-36
2021/01/03 00:59:27;;;;;;;;;;;;;;;27.14;31.43;101466.84;5117233;28;736;-35
2021/01/03 01:01:52;;;;;;;;;;;;;;;27.32;30.83;101463.13;5116948;28;796;-35
2021/01/03 01:04:18;;;;;;;;;;;;;;;27.61;30.26;101461.81;5117247;28;1914;-36
2021/01/03 01:06:44;;;;;;;;;;;;;;;27.59;30.57;101458.44;5116688;27;1008;-35
2021/01/03 01:09:09;;;;;;;;;;;;;;;27.49;30.63;101456.72;5118756;27;1063;-35
2021/01/03 01:11:37;;;;;;;;;;;;;;;26.66;32.38;101464.63;5138165;27;865;-36
2021/01/03 01:14:02;;;;;;;;;;;;;;;26.97;31.93;101461.38;5137713;27;719;-35
2021/01/03 01:16:28;;;;;;;;;;;;;;;27.62;30.38;101455.38;5137644;27;819;-35
2021/01/03 01:18:53;;;;;;;;;;;;;;;27.66;30.24;101459.44;5137502;27;1274;-35
2021/01/03 01:21:18;;;;;;;;;;;;;;;27.61;30.37;101456.41;5125800;27;998;-35
2021/01/03 01:23:43;;;;;;;;;;;;;;;26.97;31.84;101457.81;5116419;28;1967;-35
2021/01/03 01:26:09;;;;;;;;;;;;;;;27.45;31.03;101452.69;5117174;28;899;-35
2021/01/03 01:28:34;;;;;;;;;;;;;;;27.68;30.33;101448.44;5117470;28;822;-35
2021/01/03 01:30:59;;;;;;;;;;;;;;;27.71;30.01;101437.34;5116707;28;794;-35
2021/01/03 01:33:25;;;;;;;;;;;;;;;27.64;30.22;101439.84;5121100;28;819;-35
2021/01/03 01:35:50;;;;;;;;;;;;;;;27.13;31.43;101443.53;5120801;27;1017;-35
2021/01/03 01:38:15;;;;;;;;;;;;;;;27.17;31.41;101436.78;5120983;28;822;-35
2021/01/03 01:40:41;;;;;;;;;;;;;;;27.00;31.65;101438.56;5121608;28;795;-35
2021/01/03 01:43:08;;;;;;;;;;;;;;;27.62;30.45;101433.75;5121005;28;783;-35
2021/01/03 01:45:34;;;;;;;;;;;;;;;27.57;30.11;101433.44;5120697;28;1968;-35
2021/01/03 01:48:16;;;;;;;;;;;;;;;27.49;30.72;101432.41;5121100;28;843;-35
2021/01/03 01:50:43;;;;;;;;;;;;;;;27.02;31.87;101429.34;5124704;27;959;-35
2021/01/03 01:53:10;;;;;;;;;;;;;;;27.49;30.89;101434.28;5141276;27;735;-36
2021/01/03 01:55:38;;;;;;;;;;;;;;;27.73;30.16;101428.03;5140819;27;770;-35
2021/01/03 01:58:08;;;;;;;;;;;;;;;27.67;30.32;101426.00;5140008;27;747;-36
2021/01/03 02:00:34;;;;;;;;;;;;;;;27.70;30.36;101422.13;5140764;27;934;-35
2021/01/03 02:03:07;;;;;;;;;;;;;;;27.39;31.23;101415.53;5139818;27;822;-35
2021/01/03 02:05:35;;;;;;;;;;;;;;;26.88;32.26;101405.63;5139691;27;1965;-35
2021/01/03 02:08:11;;;;;;;;;;;;;;;27.67;30.19;101396.25;5140864;27;808;-36
2021/01/03 02:10:37;;;;;;;;;;;;;;;27.65;30.46;101400.13;5139869;27;1189;-35
2021/01/03 02:13:12;;;;;;;;;;;;;;;27.64;30.15;101396.59;5141191;27;794;-35
2021/01/03 02:15:37;;;;;;;;;;;;;;;27.24;31.16;101405.38;5140626;27;893;-35
2021/01/03 02:18:03;;;;;;;;;;;;;;;27.22;31.24;101402.03;5140716;27;758;-35
2021/01/03 02:20:32;;;;;;;;;;;;;;;27.56;30.36;101396.63;5136064;27;1765;-35
2021/01/03 02:22:58;;;;;;;;;;;;;;;27.74;30.10;101399.16;5118258;28;823;-35
2021/01/03 02:25:24;;;;;;;;;;;;;;;27.77;29.79;101398.81;5119876;28;1910;-36
2021/01/03 02:28:04;;;;;;;;;;;;;;;27.07;31.47;101404.53;5120274;28;802;-36
2021/01/03 02:30:29;;;;;;;;;;;;;;;27.25;31.38;101400.84;5118359;28;780;-35
2021/01/03 02:33:13;;;;;;;;;;;;;;;27.14;31.49;101400.13;5118776;28;798;-36
2021/01/03 02:35:38;;;;;;;;;;;;;;;27.67;30.06;101384.59;5119680;27;1012;-35
2021/01/03 02:38:03;;;;;;;;;;;;;;;27.65;30.22;101378.50;5118809;28;794;-35
2021/01/03 02:40:29;;;;;;;;;;;;;;;27.06;31.17;101380.41;5119797;28;838;-35
2021/01/03 02:42:54;;;;;;;;;;;;;;;27.53;30.79;101375.34;5119473;28;798;-35
2021/01/03 02:45:21;;;;;;;;;;;;;;;27.56;30.33;101369.59;5119740;28;1909;-35
2021/01/03 02:47:46;;;;;;;;;;;;;;;27.82;29.85;101366.69;5120014;28;782;-36
2021/01/03 02:50:13;;;;;;;;;;;;;;;27.77;29.81;101377.19;5118221;27;996;-35
2021/01/03 02:52:39;;;;;;;;;;;;;;;27.39;30.88;101364.22;5119765;28;798;-35
2021/01/03 02:55:05;;;;;;;;;;;;;;;27.56;30.40;101373.13;5120051;28;747;-35
2021/01/03 02:57:30;;;;;;;;;;;;;;;27.78;30.04;101368.03;5119832;28;746;-36
2021/01/03 02:59:56;;;;;;;;;;;;;;;27.84;29.97;101361.13;5119405;28;743;-35
2021/01/03 03:02:21;;;;;;;;;;;;;;;27.60;30.46;101362.81;5119420;28;835;-35
2021/01/03 03:04:46;;;;;;;;;;;;;;;26.98;31.61;101357.75;5119518;28;1963;-35
2021/01/03 03:07:11;;;;;;;;;;;;;;;27.41;31.13;101353.22;5118839;27;981;-35
2021/01/03 03:09:37;;;;;;;;;;;;;;;27.61;30.45;101356.41;5125219;27;1079;-35
2021/01/03 03:12:02;;;;;;;;;;;;;;;27.73;30.00;101357.75;5140360;27;842;-37
2021/01/03 03:14:27;;;;;;;;;;;;;;;27.71;30.14;101356.25;5139490;27;743;-33
2021/01/03 03:16:59;;;;;;;;;;;;;;;27.73;29.67;101354.19;5139970;27;895;-35
2021/01/03 03:19:24;;;;;;;;;;;;;;;27.78;30.22;101353.72;5139812;27;1066;-35
2021/01/03 03:21:50;;;;;;;;;;;;;;;27.68;30.33;101354.72;5123063;27;956;-35
2021/01/03 03:24:15;;;;;;;;;;;;;;;27.87;29.78;101355.38;5120403;27;1909;-36
2021/01/03 03:26:41;;;;;;;;;;;;;;;27.70;30.11;101347.28;5139456;27;885;-35
2021/01/03 03:29:06;;;;;;;;;;;;;;;27.59;30.18;101353.84;5138987;27;803;-35
2021/01/03 03:31:31;;;;;;;;;;;;;;;27.41;30.85;101359.47;5139331;27;811;-35
2021/01/03 03:33:56;;;;;;;;;;;;;;;27.53;30.75;101361.84;5139947;27;767;-35
2021/01/03 03:36:22;;;;;;;;;;;;;;;27.82;29.71;101350.47;5126978;27;957;-35
2021/01/03 03:38:47;;;;;;;;;;;;;;;27.69;30.26;101345.63;5118558;28;835;-35
2021/01/03 03:41:19;;;;;;;;;;;;;;;27.65;30.16;101363.16;5119032;28;849;-35
2021/01/03 03:43:44;;;;;;;;;;;;;;;27.06;31.51;101350.72;5118728;28;1950;-36
2021/01/03 03:46:09;;;;;;;;;;;;;;;27.75;30.12;101352.19;5118781;28;850;-35
2021/01/03 03:48:35;;;;;;;;;;;;;;;27.83;29.72;101352.16;5118411;28;774;-35
2021/01/03 03:51:00;;;;;;;;;;;;;;;27.52;30.58;101352.88;5117822;27;934;-35
2021/01/03 03:53:25;;;;;;;;;;;;;;;27.45;30.04;101358.13;5118501;28;762;-35
2021/01/03 03:55:53;;;;;;;;;;;;;;;27.18;31.50;101341.25;5117638;28;826;-35
2021/01/03 03:58:18;;;;;;;;;;;;;;;27.65;30.17;101354.19;5118642;28;755;-35
2021/01/03 04:00:43;;;;;;;;;;;;;;;27.74;29.94;101350.50;5118216;28;810;-35
2021/01/03 04:03:09;;;;;;;;;;;;;;;27.45;30.51;101352.72;5118319;28;870;-35
2021/01/03 04:05:34;;;;;;;;;;;;;;;27.27;31.26;101342.09;5117871;27;1901;-35
2021/01/03 04:07:59;;;;;;;;;;;;;;;27.57;30.60;101344.25;5118182;28;865;-35
2021/01/03 04:10:24;;;;;;;;;;;;;;;27.72;29.96;101339.00;5130675;27;1134;-35
2021/01/03 04:12:50;;;;;;;;;;;;;;;27.62;29.97;101340.03;5138598;27;858;-35
2021/01/03 04:15:15;;;;;;;;;;;;;;;27.57;30.44;101341.53;5128240;27;854;-44
2021/01/03 04:17:41;;;;;;;;;;;;;;;26.75;30.03;101344.03;5117881;28;549;-37
2021/01/03 04:20:06;;;;;;;;;;;;;;;26.01;30.34;101340.91;5117590;27;1348;-32
2021/01/03 04:22:32;;;;;;;;;;;;;;;25.12;32.27;101325.69;5117890;28;723;-33
2021/01/03 04:24:58;;;;;;;;;;;;;;;25.05;32.21;101333.53;5117697;28;1976;-35
2021/01/03 04:27:23;;;;;;;;;;;;;;;25.18;31.78;101333.13;5117824;28;814;-36
2021/01/03 04:29:48;;;;;;;;;;;;;;;24.98;31.28;101328.88;5117441;28;775;-36
2021/01/03 04:32:13;;;;;;;;;;;;;;;25.30;31.65;101330.19;5117638;28;861;-38
2021/01/03 04:34:39;;;;;;;;;;;;;;;26.25;30.60;101338.47;5117847;28;747;-37
2021/01/03 04:37:05;;;;;;;;;;;;;;;25.94;30.87;101342.59;5116825;27;992;-44
2021/01/03 04:39:30;;;;;;;;;;;;;;;25.79;30.95;101343.16;5117753;28;874;-45
2021/01/03 04:41:57;;;;;;;;;;;;;;;25.78;30.34;101344.16;5117885;28;747;-44
2021/01/03 04:44:24;;;;;;;;;;;;;;;25.80;30.48;101341.31;5117146;28;1902;-44
2021/01/03 04:46:50;;;;;;;;;;;;;;;25.90;30.33;101342.06;5116195;28;1288;-44
2021/01/03 04:49:24;;;;;;;;;;;;;;;25.00;31.30;101333.13;5116346;28;814;-44
2021/01/03 04:51:55;;;;;;;;;;;;;;;24.01;32.55;101338.19;5131441;27;986;-46
2021/01/03 04:54:20;;;;;;;;;;;;;;;23.86;33.06;101344.03;5138531;27;802;-42
2021/01/03 04:56:47;;;;;;;;;;;;;;;24.27;32.51;101348.31;5148801;27;1431;-37
2021/01/03 04:59:31;;;;;;;;;;;;;;;24.75;31.87;101350.84;5141857;27;939;-42
2021/01/03 05:02:12;;;;;;;;;;;;;;;25.12;30.98;101347.22;5156497;27;925;-47
2021/01/03 05:04:43;;;;;;;;;;;;;;;24.20;32.32;101353.44;5136681;27;1901;-40
2021/01/03 05:07:10;;;;;;;;;;;;;;;24.28;32.26;101345.47;5120804;27;983;-40
2021/01/03 05:09:35;;;;;;;;;;;;;;;23.79;32.87;101351.84;5123179;27;1194;-43
2021/01/03 05:12:11;;;;;;;;;;;;;;;23.53;33.31;101346.25;5137423;27;949;-39
2021/01/03 05:14:40;;;;;;;;;;;;;;;23.52;33.35;101349.94;5136595;27;783;-39
2021/01/03 05:17:05;;;;;;;;;;;;;;;23.17;33.93;101341.47;5138139;27;828;-38
2021/01/03 05:19:30;;;;;;;;;;;;;;;23.29;33.75;101340.31;5137666;27;1286;-45
2021/01/03 05:21:56;;;;;;;;;;;;;;;23.57;34.04;101342.28;5120809;27;1004;-36
2021/01/03 05:24:22;;;;;;;;;;;;;;;23.52;33.54;101341.88;5117543;28;1913;-34
2021/01/03 05:26:47;;;;;;;;;;;;;;;23.79;33.12;101345.63;5116878;28;834;-40
2021/01/03 05:29:19;;;;;;;;;;;;;;;23.80;33.17;101350.84;5116985;28;818;-34
2021/01/03 05:31:55;;;;;;;;;;;;;;;23.81;33.00;101354.38;5117248;28;759;-42
2021/01/03 05:34:22;;;;;;;;;;;;;;;23.82;33.06;101353.41;5117130;28;795;-42
2021/01/03 05:36:50;;;;;;;;;;;;;;;23.71;33.25;101343.66;5131019;27;958;-36
2021/01/03 05:39:21;;;;;;;;;;;;;;;23.87;33.09;101351.13;5136358;28;739;-36
2021/01/03 05:41:47;;;;;;;;;;;;;;;23.72;33.20;101348.88;5137341;27;897;-35
2021/01/03 05:44:21;;;;;;;;;;;;;;;23.75;33.14;101339.69;5137338;27;1905;-35
2021/01/03 05:46:47;;;;;;;;;;;;;;;23.82;32.93;101342.66;5137621;27;771;-34
2021/01/03 05:49:14;;;;;;;;;;;;;;;23.71;33.36;101354.41;5137507;27;787;-47
2021/01/03 05:51:39;;;;;;;;;;;;;;;23.60;33.51;101345.53;5123372;27;945;-41
2021/01/03 05:54:05;;;;;;;;;;;;;;;23.55;33.85;101355.00;5116940;28;763;-34
2021/01/03 05:56:31;;;;;;;;;;;;;;;23.54;33.92;101353.31;5117098;28;743;-35
2021/01/03 05:58:56;;;;;;;;;;;;;;;23.72;33.49;101356.13;5115545;28;817;-33
2021/01/03 06:01:22;;;;;;;;;;;;;;;23.73;33.65;101350.59;5116817;28;838;-34
2021/01/03 06:03:58;;;;;;;;;;;;;;;23.65;33.79;101349.63;5116925;28;1965;-34
2021/01/03 06:06:25;;;;;;;;;;;;;;;23.61;33.75;101341.00;5116162;27;1020;-34
2021/01/03 06:08:52;;;;;;;;;;;;;;;23.71;33.53;101341.81;5115074;28;1613;-35
2021/01/03 06:11:18;;;;;;;;;;;;;;;23.76;33.46;101337.84;5135739;28;1296;-35
2021/01/03 06:13:47;;;;;;;;;;;;;;;23.32;34.26;101344.56;5137115;27;794;-35
2021/01/03 06:16:13;;;;;;;;;;;;;;;23.48;33.86;101339.47;5137259;27;818;-35
2021/01/03 06:18:40;;;;;;;;;;;;;;;22.70;35.66;101335.78;5139621;27;1045;-46
2021/01/03 06:21:06;;;;;;;;;;;;;;;22.90;35.24;101330.44;5138766;27;954;-48
2021/01/03 06:23:35;;;;;;;;;;;;;;;22.92;35.15;101335.66;5139487;27;1966;-47
2021/01/03 06:26:10;;;;;;;;;;;;;;;23.26;34.73;101334.38;5141133;27;771;-38
2021/01/03 06:28:40;;;;;;;;;;;;;;;23.31;34.33;101334.78;5139436;27;765;-39
2021/01/03 06:31:35;;;;;;;;;;;;;;;23.22;34.65;101342.72;5139732;27;791;-39
2021/01/03 06:34:00;;;;;;;;;;;;;;;23.05;35.10;101340.75;5084832;27;1094;-41
2021/01/03 06:36:45;;;;;;;;;;;;;;;22.92;35.14;101347.22;5127872;27;949;-39
2021/01/03 06:39:26;;;;;;;;;;;;;;;23.07;35.27;101347.66;5112638;28;1764;-40
2021/01/03 06:41:52;;;;;;;;;;;;;;;22.94;35.13;101352.47;5119626;28;803;-37
2021/01/03 06:44:18;;;;;;;;;;;;;;;22.96;35.12;101345.97;5120126;28;1967;-38
2021/01/03 06:49:48;;;;;;;;;;;;;;;22.84;35.58;101344.38;5180496;22;3502;-42
2021/01/03 06:52:20;;;;;;;;;;;;;;;22.72;35.54;101343.69;5111021;28;1186;-38
2021/01/03 06:54:45;;;;;;;;;;;;;;;22.87;35.49;101349.50;5103419;28;1130;-39
2021/01/03 06:57:29;;;;;;;;;;;;;;;22.81;35.58;101337.47;5118201;28;846;-33
2021/01/03 07:00:14;;;;;;;;;;;;;;;22.78;35.79;101353.00;5097788;28;747;-37
2021/01/03 07:02:43;;;;;;;;;;;;;;;22.68;36.00;101361.03;5099528;28;766;-38
2021/01/03 07:05:09;;;;;;;;;;;;;;;22.74;35.57;101357.78;5099033;28;1970;-37
2021/01/03 07:07:34;;;;;;;;;;;;;;;23.12;35.31;101360.66;5117911;28;946;-43
2021/01/03 07:10:03;;;;;;;;;;;;;;;23.48;34.51;101352.03;5118358;28;1114;-40
2021/01/03 07:12:35;;;;;;;;;;;;;;;23.46;34.63;101354.88;5119715;28;846;-42
2021/01/03 07:15:01;;;;;;;;;;;;;;;23.47;34.38;101351.19;5119032;28;825;-39
2021/01/03 07:17:44;;;;;;;;;;;;;;;23.54;34.43;101358.69;5119662;28;797;-39
2021/01/03 07:20:24;;;;;;;;;;;;;;;23.72;34.01;101356.94;5118180;28;779;-39
2021/01/03 07:22:49;;;;;;;;;;;;;;;23.82;33.82;101362.28;5117590;28;1125;-34
2021/01/03 07:25:18;;;;;;;;;;;;;;;23.78;33.87;101352.84;5119749;28;1964;-37
2021/01/03 07:27:44;;;;;;;;;;;;;;;23.71;33.97;101351.72;5119123;28;778;-38
2021/01/03 07:30:09;;;;;;;;;;;;;;;23.67;34.16;101353.84;5118714;28;801;-37
2021/01/03 07:32:37;;;;;;;;;;;;;;;23.70;33.93;101360.78;5118967;28;1021;-37
2021/01/03 07:35:21;;;;;;;;;;;;;;;23.67;33.94;101359.22;5118706;28;838;-37
2021/01/03 07:37:46;;;;;;;;;;;;;;;23.76;34.00;101357.50;5118799;28;989;-36
2021/01/03 07:40:15;;;;;;;;;;;;;;;23.74;34.13;101348.72;5118973;28;762;-39
2021/01/03 07:42:43;;;;;;;;;;;;;;;23.77;34.05;101352.97;5119019;28;762;-36
2021/01/03 07:45:11;;;;;;;;;;;;;;;23.81;33.88;101349.00;5118563;28;1897;-37
2021/01/03 07:47:46;;;;;;;;;;;;;;;23.80;33.91;101350.84;5118696;28;1098;-37
2021/01/03 07:50:27;;;;;;;;;;;;;;;23.76;34.12;101357.50;5118997;28;1281;-35
2021/01/03 07:53:11;;;;;;;;;;;;;;;23.69;34.41;101349.16;5118131;28;977;-40
2021/01/03 07:55:37;;;;;;;;;;;;;;;23.72;34.22;101359.63;5118583;28;751;-37
2021/01/03 07:58:02;;;;;;;;;;;;;;;23.08;34.40;101258.13;5118351;28;812;-37
2021/01/03 08:00:28;;;;;;;;;;;;;;;23.70;34.41;101361.63;5118913;28;810;-38
2021/01/03 08:02:55;;;;;;;;;;;;;;;23.79;34.10;101367.13;5118774;28;939;-36
2021/01/03 08:05:21;;;;;;;;;;;;;;;23.79;34.18;101364.44;5117298;28;1907;-35
2021/01/03 08:07:46;;;;;;;;;;;;;;;23.86;34.13;101373.59;5118148;28;945;-36
2021/01/03 08:10:12;;;;;;;;;;;;;;;23.81;34.26;101367.81;5118427;28;814;-35
2021/01/03 08:12:38;;;;;;;;;;;;;;;23.77;34.32;101363.72;5118537;28;815;-38
2021/01/03 08:15:05;;;;;;;;;;;;;;;23.79;34.23;101359.88;5117512;28;826;-42
2021/01/03 08:17:35;;;;;;;;;;;;;;;23.82;34.10;101362.28;5117221;28;806;-36
2021/01/03 08:20:02;;;;;;;;;;;;;;;23.88;33.94;101358.19;5118272;28;778;-37
2021/01/03 08:22:28;;;;;;;;;;;;;;;23.86;34.14;101354.78;5117468;28;945;-38
2021/01/03 08:24:59;;;;;;;;;;;;;;;23.80;34.17;101352.69;5118333;28;2030;-36
2021/01/03 08:27:30;;;;;;;;;;;;;;;23.84;34.12;101356.75;5118264;28;1057;-36
2021/01/03 08:30:06;;;;;;;;;;;;;;;23.88;33.97;101352.81;5117155;28;984;-37
2021/01/03 08:32:31;;;;;;;;;;;;;;;23.89;34.15;101343.75;5118083;28;822;-36
2021/01/03 08:35:00;;;;;;;;;;;;;;;23.89;34.00;101349.13;5117898;28;830;-36
2021/01/03 08:37:48;;;;;;;;;;;;;;;23.82;34.17;101340.78;5117693;28;1048;-37
2021/01/03 08:40:16;;;;;;;;;;;;;;;23.83;34.25;101330.91;5106506;28;1623;-36
2021/01/03 08:42:42;;;;;;;;;;;;;;;23.91;34.32;101335.53;5116078;28;883;-35
2021/01/03 08:45:07;;;;;;;;;;;;;;;23.87;34.13;101332.31;5117001;28;1992;-36
2021/01/03 08:47:35;;;;;;;;;;;;;;;23.92;34.26;101323.81;5117864;28;1141;-43
2021/01/03 08:50:07;;;;;;;;;;;;;;;23.89;34.38;101327.63;5115944;28;1221;-35
2021/01/03 08:52:32;;;;;;;;;;;;;;;23.90;34.21;101326.66;5117694;27;1027;-36
2021/01/03 08:55:09;;;;;;;;;;;;;;;23.95;34.20;101316.31;5117612;28;821;-38
2021/01/03 08:57:35;;;;;;;;;;;;;;;23.95;34.23;101312.75;5116915;28;1413;-42
2021/01/03 09:00:00;;;;;;;;;;;;;;;23.96;34.25;101309.06;5116413;28;790;-37
2021/01/03 09:02:26;;;;;;;;;;;;;;;23.91;34.16;101320.25;5117606;28;759;-46
2021/01/03 09:04:56;;;;;;;;;;;;;;;23.90;34.20;101309.66;5117041;28;1983;-36
2021/01/03 09:07:21;;;;;;;;;;;;;;;23.93;34.24;101309.38;5117009;28;946;-39
2021/01/03 09:09:47;;;;;;;;;;;;;;;23.97;34.07;101310.78;5115645;28;810;-37
2021/01/03 09:12:12;;;;;;;;;;;;;;;23.89;34.23;101316.88;5115539;28;936;-34
2021/01/03 09:14:48;;;;;;;;;;;;;;;23.90;34.31;101315.03;5116040;28;795;-36
2021/01/03 09:17:23;;;;;;;;;;;;;;;23.89;34.29;101316.88;5116066;28;822;-36
2021/01/03 09:19:51;;;;;;;;;;;;;;;23.83;34.25;101304.03;5115824;28;792;-38
2021/01/03 09:22:26;;;;;;;;;;;;;;;23.91;34.15;101305.97;5117659;28;965;-41
2021/01/03 09:24:59;;;;;;;;;;;;;;;23.94;34.30;101316.47;5115131;28;1906;-32
2021/01/03 09:27:28;;;;;;;;;;;;;;;23.99;34.02;101303.41;5115743;28;747;-33
2021/01/03 09:29:54;;;;;;;;;;;;;;;24.14;33.72;101301.06;5115655;28;971;-38
2021/01/03 09:32:22;;;;;;;;;;;;;;;24.19;33.66;101292.59;5115807;28;1526;-38
2021/01/03 09:34:50;;;;;;;;;;;;;;;24.19;33.59;101290.75;5117072;28;822;-34
2021/01/03 09:37:28;;;;;;;;;;;;;;;24.01;33.93;101301.41;5116629;28;937;-44
2021/01/03 09:40:12;;;;;;;;;;;;;;;23.90;33.94;101306.97;5116756;28;898;-35
2021/01/03 09:42:46;;;;;;;;;;;;;;;23.85;34.20;101302.91;5116817;28;786;-39
2021/01/03 09:45:30;;;;;;;;;;;;;;;23.81;34.18;101300.63;5116869;28;1929;-38
2021/01/03 09:47:55;;;;;;;;;;;;;;;23.80;34.06;101299.81;5116973;28;1023;-40
2021/01/03 09:50:23;;;;;;;;;;;;;;;23.82;33.99;101299.66;5116579;28;1108;-36
2021/01/03 09:52:52;;;;;;;;;;;;;;;23.81;34.12;101293.44;5117424;28;1541;-36
2021/01/03 09:55:20;;;;;;;;;;;;;;;23.81;34.07;101290.75;5121148;28;850;-36
2021/01/03 09:57:48;;;;;;;;;;;;;;;23.84;33.88;101284.22;5120675;28;723;-37
2021/01/03 10:00:15;;;;;;;;;;;;;;;23.96;33.88;101271.44;5120917;28;806;-35
2021/01/03 10:02:41;;;;;;;;;;;;;;;24.04;33.76;101260.78;5121081;28;862;-37
2021/01/03 10:05:26;;;;;;;;;;;;;;;24.07;33.42;101262.34;5119975;28;1918;-35
2021/01/03 10:08:14;;;;;;;;;;;;;;;23.99;33.71;101263.09;5120146;28;1829;-37
2021/01/03 10:10:40;;;;;;;;;;;;;;;23.99;33.61;101263.09;5120457;27;1016;-46
2021/01/03 10:13:08;;;;;;;;;;;;;;;23.88;33.83;101260.59;5120292;28;751;-35
2021/01/03 10:15:33;;;;;;;;;;;;;;;23.80;34.02;101247.91;5120836;28;790;-37
2021/01/03 10:17:59;;;;;;;;;;;;;;;23.78;34.04;101258.81;5120583;28;743;-39
2021/01/03 10:20:31;;;;;;;;;;;;;;;23.89;33.76;101251.56;5119941;28;838;-43
2021/01/03 10:22:56;;;;;;;;;;;;;;;23.89;33.70;101247.00;5120013;28;1015;-36
2021/01/03 10:25:22;;;;;;;;;;;;;;;23.88;33.68;101249.84;5120299;28;1902;-39
2021/01/03 10:28:05;;;;;;;;;;;;;;;23.91;33.71;101249.56;5120344;27;774;-37
2021/01/03 10:30:30;;;;;;;;;;;;;;;23.85;33.89;101249.19;5120544;28;809;-45
2021/01/03 10:32:56;;;;;;;;;;;;;;;23.83;33.72;101248.47;5120041;28;506;-37
2021/01/03 10:35:21;;;;;;;;;;;;;;;23.91;33.63;101242.34;5120006;28;773;-36
2021/01/03 10:37:46;;;;;;;;;;;;;;;23.85;33.85;101234.88;5119961;28;949;-35
2021/01/03 10:40:12;;;;;;;;;;;;;;;23.91;33.89;101217.31;5119740;27;849;-40
2021/01/03 10:42:37;;;;;;;;;;;;;;;23.87;33.83;101221.31;5119901;28;798;-37
2021/01/03 10:45:03;;;;;;;;;;;;;;;23.90;33.83;101212.94;5120174;28;1963;-37
2021/01/03 10:47:28;;;;;;;;;;;;;;;23.87;33.70;101211.41;5119960;28;1149;-37
2021/01/03 10:49:53;;;;;;;;;;;;;;;24.01;33.41;101210.03;5119727;28;1124;-39
2021/01/03 10:52:18;;;;;;;;;;;;;;;24.04;33.40;101203.53;5119927;27;1012;-38
2021/01/03 10:54:44;;;;;;;;;;;;;;;23.97;33.46;101211.34;5120324;28;817;-37
2021/01/03 10:57:09;;;;;;;;;;;;;;;23.92;33.50;101205.59;5119587;28;750;-39
2021/01/03 10:59:34;;;;;;;;;;;;;;;24.13;33.43;101204.44;5119769;28;810;-37
2021/01/03 11:02:00;;;;;;;;;;;;;;;24.57;32.68;101212.63;5119800;28;779;-37
2021/01/03 11:04:25;;;;;;;;;;;;;;;24.80;32.21;101214.00;5118929;28;1965;-37
2021/01/03 11:06:51;;;;;;;;;;;;;;;24.76;32.24;101199.16;5119672;27;1007;-37
2021/01/03 11:09:17;;;;;;;;;;;;;;;24.58;32.58;101203.59;5119526;28;836;-37
2021/01/03 11:11:43;;;;;;;;;;;;;;;24.62;32.60;101195.22;5119163;28;878;-33
2021/01/03 11:14:08;;;;;;;;;;;;;;;24.60;32.50;101189.97;5119207;28;802;-39
2021/01/03 11:16:38;;;;;;;;;;;;;;;24.70;32.54;101193.44;5119516;28;791;-35
2021/01/03 11:19:04;;;;;;;;;;;;;;;24.64;32.49;101191.34;5119141;28;751;-42
2021/01/03 11:21:29;;;;;;;;;;;;;;;24.61;32.48;101191.66;5119225;28;1008;-36
2021/01/03 11:23:54;;;;;;;;;;;;;;;24.43;32.87;101189.00;5119297;28;1893;-36
2021/01/03 11:26:30;;;;;;;;;;;;;;;24.37;32.99;101190.47;5119109;28;810;-37
2021/01/03 11:28:56;;;;;;;;;;;;;;;24.46;32.95;101191.38;5119182;28;778;-38
2021/01/03 11:31:21;;;;;;;;;;;;;;;24.56;32.77;101186.75;5119577;28;798;-38
2021/01/03 11:33:46;;;;;;;;;;;;;;;24.64;32.71;101183.28;5119190;28;866;-38
2021/01/03 11:36:17;;;;;;;;;;;;;;;24.84;32.50;101185.78;5118910;28;973;-38
2021/01/03 11:38:42;;;;;;;;;;;;;;;24.57;32.77;101179.53;5119012;28;751;-38
2021/01/03 11:41:09;;;;;;;;;;;;;;;24.59;32.64;101177.53;5118697;28;790;-36
2021/01/03 11:43:34;;;;;;;;;;;;;;;24.57;32.79;101177.69;5118872;28;763;-33
2021/01/03 11:46:00;;;;;;;;;;;;;;;24.51;32.91;101181.00;5118992;28;1898;-33
2021/01/03 11:48:25;;;;;;;;;;;;;;;24.42;33.03;101176.56;5118429;28;1090;-33
2021/01/03 11:50:50;;;;;;;;;;;;;;;24.46;32.98;101172.53;5118309;28;1155;-34
2021/01/03 11:53:15;;;;;;;;;;;;;;;24.38;33.21;101169.78;5118550;28;1020;-33
2021/01/03 11:55:41;;;;;;;;;;;;;;;24.42;33.03;101160.41;5118505;28;777;-37
2021/01/03 11:58:06;;;;;;;;;;;;;;;24.43;33.05;101160.25;5118411;28;877;-40
2021/01/03 12:00:32;;;;;;;;;;;;;;;24.39;33.14;101161.56;5119071;28;766;-37
2021/01/03 12:02:58;;;;;;;;;;;;;;;24.47;33.00;101166.19;5118406;28;805;-32
2021/01/03 12:05:23;;;;;;;;;;;;;;;24.50;32.94;101173.94;5118045;28;1898;-32
2021/01/03 12:07:48;;;;;;;;;;;;;;;24.60;32.72;101183.75;5118396;28;953;-33
2021/01/03 12:10:14;;;;;;;;;;;;;;;24.41;32.96;101181.06;5117994;28;811;-33
2021/01/03 12:12:39;;;;;;;;;;;;;;;24.30;33.05;101189.38;5118081;28;787;-33
2021/01/03 12:15:05;;;;;;;;;;;;;;;24.25;33.19;101187.16;5117862;27;758;-33
2021/01/03 12:17:30;;;;;;;;;;;;;;;24.26;33.07;101188.84;5117813;28;780;-32
2021/01/03 12:19:55;;;;;;;;;;;;;;;24.37;33.03;101187.78;5118247;28;775;-33
2021/01/03 12:22:21;;;;;;;;;;;;;;;24.62;32.61;101182.63;5118255;28;965;-32
2021/01/03 12:24:46;;;;;;;;;;;;;;;24.52;32.78;101180.00;5117601;28;1880;-48
2021/01/03 12:27:12;;;;;;;;;;;;;;;24.37;32.97;101178.84;5118234;28;759;-33
2021/01/03 12:29:37;;;;;;;;;;;;;;;24.33;32.98;101179.16;5118184;27;806;-39
2021/01/03 12:32:03;;;;;;;;;;;;;;;24.47;32.95;101187.69;5117510;28;882;-33
2021/01/03 12:34:29;;;;;;;;;;;;;;;24.57;32.86;101180.38;5118140;28;754;-32
2021/01/03 12:37:01;;;;;;;;;;;;;;;24.67;32.52;101182.97;5118056;28;956;-33
2021/01/03 12:39:26;;;;;;;;;;;;;;;24.55;32.71;101185.06;5117383;28;754;-48
2021/01/03 12:41:52;;;;;;;;;;;;;;;24.49;32.69;101193.75;5118007;28;755;-35
2021/01/03 12:44:17;;;;;;;;;;;;;;;24.48;32.85;101192.06;5117758;28;1955;-33
2021/01/03 12:46:43;;;;;;;;;;;;;;;24.42;32.87;101190.81;5117374;28;1141;-38
2021/01/03 12:49:08;;;;;;;;;;;;;;;24.37;33.06;101189.59;5117680;28;1232;-40
2021/01/03 12:51:33;;;;;;;;;;;;;;;24.33;32.99;101194.44;5117536;28;1008;-33
2021/01/03 12:53:59;;;;;;;;;;;;;;;24.28;33.01;101199.44;5117532;28;840;-38
2021/01/03 12:56:26;;;;;;;;;;;;;;;24.23;33.27;101199.91;5117792;28;786;-47
2021/01/03 12:58:51;;;;;;;;;;;;;;;24.31;33.11;101202.66;5117158;28;861;-33